Time;durP1;ratioP1;P1;durP2;ratioP2;P2;SDS_P1;SDS_P2;PMS_P1;PMS_P2;Temp;Humidity;BMP_temperature;BMP_pressure;BME280_temperature;BME280_humidity;BME280_pressure;Samples;Min_cycle;Max_cycle;Signal;HPM_P1;HPM_P2
2022/10/02 00:01:46;;;;;;;14.02;3.72;;;;;;;10.51;84.17;98646.56;5040393;28;20025;-85
2022/10/02 00:04:22;;;;;;;8.80;3.40;;;;;;;10.43;83.80;98612.34;5026980;28;20125;-84
2022/10/02 00:06:49;;;;;;;;;;;;;;;10.52;84.11;98641.00;5042884;28;20104;-84
2022/10/02 00:09:52;;;;;;;6.80;3.22;;;;;;;10.29;84.66;98619.13;5029742;28;20401;-85
2022/10/02 00:12:22;;;;;;;12.57;3.95;;;;;;;10.57;83.42;98638.34;5008567;28;20055;-85
2022/10/02 00:14:52;;;;;;;11.63;4.07;;;;;;;10.43;84.06;98647.84;5025157;28;20024;-84
2022/10/02 00:17:22;;;;;;;7.85;3.05;;;;;;;10.44;83.67;98633.44;5040741;28;20355;-85
2022/10/02 00:19:57;;;;;;;9.07;3.17;;;;;;;10.23;84.19;98618.28;5026930;28;20033;-84
2022/10/02 00:22:41;;;;;;;5.95;3.47;;;;;;;10.20;84.72;98648.13;5024813;28;21970;-85
2022/10/02 00:25:21;;;;;;;19.35;4.13;;;;;;;10.27;84.94;98648.72;5024940;28;20031;-84
2022/10/02 00:28:16;;;;;;;7.45;3.10;;;;;;;10.49;83.86;98662.03;5023823;28;20079;-84
2022/10/02 00:30:52;;;;;;;13.05;3.88;;;;;;;10.39;84.29;98644.06;5042017;28;20040;-84
2022/10/02 00:33:25;;;;;;;8.95;3.63;;;;;;;10.37;84.38;98653.38;5025540;28;20067;-85
2022/10/02 00:35:59;;;;;;;9.20;3.10;;;;;;;10.37;84.36;98654.19;5025589;28;21963;-84
2022/10/02 00:38:46;;;;;;;10.13;2.85;;;;;;;10.39;83.72;98660.06;5023675;28;20098;-84
2022/10/02 00:41:26;;;;;;;11.35;3.50;;;;;;;10.23;84.13;98652.97;5041618;28;20136;-85
2022/10/02 00:44:01;;;;;;;9.38;3.25;;;;;;;10.22;84.31;98659.34;5024238;28;20033;-85
2022/10/02 00:46:35;;;;;;;8.75;2.92;;;;;;;10.28;84.51;98655.69;5024614;28;20021;-85
2022/10/02 00:49:14;;;;;;;12.65;3.28;;;;;;;10.25;85.12;98663.38;5027264;28;20037;-84
2022/10/02 00:52:04;;;;;;;5.93;2.95;;;;;;;10.33;84.93;98662.94;5044559;28;20024;-84
2022/10/02 00:54:52;;;;;;;7.65;3.30;;;;;;;10.30;84.93;98658.09;5024432;28;20119;-84
2022/10/02 00:57:56;;;;;;;9.13;4.20;;;;;;;10.37;85.01;98664.03;5022211;28;20106;-85
2022/10/02 01:00:22;;;;;;;6.65;2.78;;;;;;;10.18;84.63;98639.56;5021007;28;20053;-84
2022/10/02 01:02:59;;;;;;;15.70;3.45;;;;;;;10.30;84.93;98666.09;5026281;28;20925;-84
2022/10/02 01:05:26;;;;;;;9.95;3.15;;;;;;;10.21;84.98;98648.94;5041677;28;20029;-85
2022/10/02 01:07:53;;;;;;;9.95;2.78;;;;;;;10.24;85.07;98675.13;5009387;28;20779;-85
2022/10/02 01:10:21;;;;;;;14.00;3.22;;;;;;;10.20;85.43;98655.34;5025284;28;20037;-84
2022/10/02 01:12:47;;;;;;;6.47;2.88;;;;;;;10.19;85.50;98672.38;5010961;28;20542;-84
2022/10/02 01:15:15;;;;;;;11.95;3.53;;;;;;;10.31;85.33;98675.72;5043343;28;20037;-84
2022/10/02 01:17:41;;;;;;;8.70;2.80;;;;;;;10.17;85.06;98666.50;5026173;28;20029;-84
2022/10/02 01:20:13;;;;;;;11.70;3.10;;;;;;;10.26;85.11;98686.34;5041692;28;20045;-85
2022/10/02 01:22:45;;;;;;;11.95;3.13;;;;;;;10.23;85.70;98684.97;5044150;28;20037;-85
2022/10/02 01:25:10;;;;;;;9.00;3.13;;;;;;;10.30;85.68;98690.09;5026171;28;20410;-85
2022/10/02 01:27:36;;;;;;;16.00;3.40;;;;;;;10.15;85.32;98661.41;5010881;28;20025;-85
2022/10/02 01:30:06;;;;;;;14.13;3.15;;;;;;;10.26;84.79;98679.16;5007744;28;20106;-85
2022/10/02 01:32:34;;;;;;;8.35;3.15;;;;;;;10.20;85.45;98685.47;5042681;28;20025;-85
2022/10/02 01:35:00;;;;;;;7.80;3.67;;;;;;;10.13;84.80;98652.88;5026739;28;20055;-85
2022/10/02 01:37:29;;;;;;;11.65;3.25;;;;;;;10.32;85.18;98672.81;5026015;28;20045;-85
2022/10/02 01:40:01;;;;;;;17.45;4.40;;;;;;;10.13;85.25;98649.38;5041855;28;20024;-85
2022/10/02 01:42:28;;;;;;;9.48;3.47;;;;;;;10.27;84.90;98675.41;5046410;28;20095;-84
2022/10/02 01:44:53;;;;;;;8.45;2.97;;;;;;;10.29;84.98;98667.97;5025417;28;20648;-85
2022/10/02 01:47:35;;;;;;;8.52;4.40;;;;;;;10.21;84.82;98664.94;4993198;28;20033;-85
2022/10/02 01:50:16;;;;;;;8.30;3.15;;;;;;;10.23;85.08;98689.50;5043970;28;20406;-85
2022/10/02 01:53:00;;;;;;;8.90;3.70;;;;;;;10.35;85.31;98692.84;5026003;28;20086;-84
2022/10/02 01:55:34;;;;;;;5.20;2.78;;;;;;;10.12;85.59;98675.25;5025443;28;20064;-85
2022/10/02 01:58:29;;;;;;;12.15;3.78;;;;;;;10.22;85.02;98690.56;5030864;28;20027;-85
2022/10/02 02:01:19;;;;;;;9.98;3.40;;;;;;;10.35;84.33;98695.50;5006510;28;20045;-84
2022/10/02 02:03:51;;;;;;;12.10;3.47;;;;;;;10.21;84.71;98684.41;5030859;28;20032;-85
2022/10/02 02:06:37;;;;;;;16.42;3.55;;;;;;;10.20;85.54;98696.13;5042373;28;20420;-85
2022/10/02 02:09:16;;;;;;;8.27;3.13;;;;;;;10.33;84.96;98695.75;5026253;28;20025;-85
2022/10/02 02:12:09;;;;;;;18.88;3.83;;;;;;;10.05;85.82;98698.59;5046504;28;20036;-85
2022/10/02 02:14:41;;;;;;;10.07;3.60;;;;;;;10.26;84.92;98692.47;5014870;28;20032;-84
2022/10/02 02:18:05;;;;;;;8.50;3.83;;;;;;;10.08;85.82;98698.09;5009972;28;20028;-85
2022/10/02 02:20:36;;;;;;;8.85;3.47;;;;;;;10.16;86.18;98715.53;4981333;28;20095;-85
2022/10/02 02:23:16;;;;;;;11.77;4.18;;;;;;;10.24;85.55;98697.22;5025890;28;21552;-85
2022/10/02 02:25:47;;;;;;;8.40;3.78;;;;;;;10.23;85.35;98695.63;5044766;28;20120;-85
2022/10/02 02:28:16;;;;;;;17.17;4.85;;;;;;;9.92;86.09;98666.97;5045634;28;20669;-85
2022/10/02 02:30:46;;;;;;;12.82;4.47;;;;;;;10.26;86.05;98697.00;5042945;28;20115;-85
2022/10/02 02:33:31;;;;;;;13.13;5.18;;;;;;;10.13;86.62;98684.06;5027922;28;20496;-84
2022/10/02 02:36:01;;;;;;;7.63;4.32;;;;;;;10.34;85.94;98697.38;5036149;28;20036;-84
2022/10/02 02:38:36;;;;;;;15.15;4.63;;;;;;;9.99;86.79;98648.94;5027064;28;20028;-85
2022/10/02 02:41:08;;;;;;;10.00;4.93;;;;;;;10.39;86.15;98699.28;5040390;28;20059;-85
2022/10/02 02:43:43;;;;;;;12.30;4.63;;;;;;;10.14;85.89;98670.47;5041669;28;20044;-84
2022/10/02 02:46:17;;;;;;;16.30;5.85;;;;;;;10.19;86.81;98675.03;5041675;28;20048;-84
2022/10/02 02:48:48;;;;;;;13.75;5.55;;;;;;;10.14;86.64;98702.47;5007478;28;20578;-85
2022/10/02 02:51:39;;;;;;;12.93;4.78;;;;;;;10.13;86.95;98684.88;5025607;28;20473;-85
2022/10/02 02:54:15;;;;;;;10.88;5.13;;;;;;;10.17;86.50;98690.50;5043612;28;20104;-84
2022/10/02 02:56:44;;;;;;;12.18;5.38;;;;;;;10.14;86.62;98704.31;5043459;28;20032;-84
2022/10/02 02:59:12;;;;;;;12.13;5.53;;;;;;;10.17;86.74;98699.31;5021540;28;20067;-84
2022/10/02 03:01:38;;;;;;;10.50;4.38;;;;;;;10.32;85.88;98694.16;5025308;28;20039;-84
2022/10/02 03:04:03;;;;;;;20.77;5.88;;;;;;;9.91;86.46;98669.88;5043186;28;20389;-85
2022/10/02 03:06:31;;;;;;;15.50;5.88;;;;;;;10.32;86.51;98693.34;5010285;28;20043;-84
2022/10/02 03:08:58;;;;;;;16.77;4.80;;;;;;;10.24;86.11;98677.78;5023284;28;20171;-84
2022/10/02 03:12:01;;;;;;;7.80;4.93;;;;;;;10.25;86.29;98692.72;5042988;28;20472;-84
2022/10/02 03:14:45;;;;;;;17.48;6.03;;;;;;;10.33;86.34;98697.63;5045074;28;20025;-84
2022/10/02 03:17:31;;;;;;;14.65;6.57;;;;;;;10.32;86.48;98702.16;5027381;28;20151;-85
2022/10/02 03:20:13;;;;;;;12.38;5.57;;;;;;;10.34;85.76;98697.38;5045448;28;20491;-85
2022/10/02 03:22:40;;;;;;;14.43;5.15;;;;;;;10.32;86.37;98710.16;5025657;28;20040;-84
2022/10/02 03:25:14;;;;;;;18.05;5.53;;;;;;;10.30;86.50;98701.59;5044051;28;20514;-84
2022/10/02 03:27:45;;;;;;;14.25;5.13;;;;;;;10.29;86.26;98699.97;5042826;28;20017;-84
2022/10/02 03:30:12;;;;;;;14.50;5.93;;;;;;;10.19;86.51;98688.38;5034917;28;20040;-84
2022/10/02 03:32:41;;;;;;;20.25;6.30;;;;;;;10.30;86.51;98701.59;5021750;28;20040;-83
2022/10/02 03:35:12;;;;;;;15.32;5.90;;;;;;;10.16;87.06;98679.00;5019728;28;20032;-84
2022/10/02 03:37:44;;;;;;;12.27;6.30;;;;;;;10.08;86.58;98659.94;5039634;28;20022;-84
2022/10/02 03:40:10;;;;;;;11.82;6.07;;;;;;;10.34;86.86;98702.69;5041409;28;20048;-84
2022/10/02 03:42:36;;;;;;;14.18;5.82;;;;;;;10.48;86.01;98706.56;5024569;28;20497;-84
2022/10/02 03:45:02;;;;;;;18.02;5.50;;;;;;;10.46;86.10;98713.25;5026841;28;20029;-84
2022/10/02 03:47:27;;;;;;;14.07;5.95;;;;;;;10.40;85.66;98693.69;5011065;28;21914;-84
2022/10/02 03:49:52;;;;;;;11.55;5.38;;;;;;;10.50;86.12;98712.50;4995084;28;20056;-84
2022/10/02 03:52:20;;;;;;;10.43;5.53;;;;;;;10.50;86.00;98717.84;5023407;28;21898;-84
2022/10/02 03:54:50;;;;;;;15.85;6.05;;;;;;;10.41;85.85;98689.16;5043674;28;20454;-84
2022/10/02 03:57:22;;;;;;;20.13;5.78;;;;;;;10.50;86.37;98698.34;5012383;28;20041;-84
2022/10/02 03:59:56;;;;;;;21.00;6.60;;;;;;;10.47;85.98;98693.50;4993100;28;20052;-84
2022/10/02 04:02:36;;;;;;;12.85;5.93;;;;;;;10.46;86.14;98689.22;5028335;28;20084;-84
2022/10/02 04:05:07;;;;;;;15.50;5.53;;;;;;;10.48;86.12;98695.91;5024187;28;20142;-84
2022/10/02 04:07:38;;;;;;;16.95;6.38;;;;;;;10.19;86.82;98662.53;5024321;28;20034;-85
2022/10/02 04:10:22;;;;;;;12.43;5.95;;;;;;;10.41;86.64;98703.31;5046079;28;20507;-84
2022/10/02 04:12:53;;;;;;;17.42;5.78;;;;;;;10.49;86.19;98668.16;5039877;28;20029;-84
2022/10/02 04:15:27;;;;;;;18.73;6.47;;;;;;;10.40;86.64;98677.69;5043451;28;20033;-85
2022/10/02 04:17:56;;;;;;;13.45;5.88;;;;;;;9.96;86.17;98598.75;5045396;28;20052;-85
2022/10/02 04:20:42;;;;;;;17.40;6.72;;;;;;;10.19;87.30;98689.19;5029596;28;20400;-84
2022/10/02 04:23:22;;;;;;;11.90;6.07;;;;;;;10.01;87.05;98673.47;5047548;28;20021;-85
2022/10/02 04:25:54;;;;;;;12.88;6.97;;;;;;;10.14;86.59;98665.13;5048747;28;20481;-84
2022/10/02 04:28:26;;;;;;;21.55;7.70;;;;;;;9.93;87.75;98678.44;5045965;28;20358;-84
2022/10/02 04:30:52;;;;;;;16.83;7.57;;;;;;;10.04;87.01;98683.66;5025565;28;20033;-84
2022/10/02 04:33:21;;;;;;;12.55;5.47;;;;;;;10.25;85.78;98666.84;5010321;28;20518;-84
2022/10/02 04:35:58;;;;;;;12.45;5.30;;;;;;;10.32;84.86;98669.31;5031335;28;20488;-84
2022/10/02 04:38:45;;;;;;;15.23;6.00;;;;;;;10.50;84.54;98685.81;5043409;28;20021;-84
2022/10/02 04:41:25;;;;;;;17.10;6.15;;;;;;;10.67;84.14;98688.34;5023103;28;20542;-84
2022/10/02 04:44:17;;;;;;;12.68;5.45;;;;;;;10.51;84.09;98682.06;5044534;28;20077;-84
2022/10/02 04:47:08;;;;;;;12.45;6.05;;;;;;;10.65;83.87;98685.13;5026048;28;20016;-84
2022/10/02 04:49:36;;;;;;;19.63;5.65;;;;;;;10.54;83.49;98678.91;5042884;28;20632;-84
2022/10/02 04:52:26;;;;;;;11.82;6.20;;;;;;;10.29;83.81;98645.81;5042839;28;20107;-83
2022/10/02 04:55:14;;;;;;;13.55;6.40;;;;;;;9.97;86.11;98679.56;5045659;28;20527;-83
2022/10/02 04:58:17;;;;;;;15.43;5.82;;;;;;;10.39;85.08;98686.75;5045591;28;20048;-85
2022/10/02 05:00:51;;;;;;;9.38;6.10;;;;;;;9.86;87.24;98691.97;5026928;28;20029;-85
2022/10/02 05:03:39;;;;;;;9.80;5.15;;;;;;;9.46;88.10;98675.41;5026578;28;20029;-84
2022/10/02 05:06:28;;;;;;;12.20;5.60;;;;;;;9.61;87.20;98670.31;5025345;28;20025;-85
2022/10/02 05:09:14;;;;;;;9.27;5.45;;;;;;;9.95;86.78;98705.66;5046566;28;20030;-85
2022/10/02 05:11:45;;;;;;;13.23;5.72;;;;;;;10.34;84.85;98707.22;5044178;28;20481;-84
2022/10/02 05:14:26;;;;;;;11.65;4.75;;;;;;;10.25;85.04;98711.38;5028355;28;20120;-85
2022/10/02 05:17:25;;;;;;;11.88;5.57;;;;;;;10.23;85.50;98700.16;5041839;28;20033;-83
2022/10/02 05:20:12;;;;;;;13.85;6.45;;;;;;;9.92;87.57;98696.28;5039254;28;20557;-85
2022/10/02 05:23:09;;;;;;;12.40;5.32;;;;;;;9.96;86.63;98683.28;5023183;28;20091;-85
2022/10/02 05:26:13;;;;;;;10.70;5.88;;;;;;;10.27;85.05;98696.75;5019709;28;20736;-84
2022/10/02 05:29:08;;;;;;;10.20;5.10;;;;;;;10.23;85.26;98684.16;5024837;28;20036;-85
2022/10/02 05:32:16;;;;;;;14.55;5.90;;;;;;;10.15;86.07;98696.09;5044629;28;20021;-84
2022/10/02 05:35:15;;;;;;;10.32;5.65;;;;;;;10.11;85.88;98686.94;5025165;28;20028;-85
2022/10/02 05:37:47;;;;;;;20.08;6.63;;;;;;;9.68;89.08;98682.38;5024362;28;20029;-84
2022/10/02 05:40:28;;;;;;;23.15;6.68;;;;;;;9.85;88.39;98694.88;5045571;28;20024;-84
2022/10/02 05:43:15;;;;;;;14.65;6.32;;;;;;;10.10;87.10;98701.31;5027844;28;20584;-84
2022/10/02 05:45:48;;;;;;;;;;;;;;;10.27;86.19;98686.06;5046330;28;20033;-84
2022/10/02 05:48:32;;;;;;;13.27;7.00;;;;;;;10.15;87.16;98688.09;5028586;28;20131;-84
2022/10/02 05:51:06;;;;;;;10.50;5.63;;;;;;;10.21;86.46;98681.75;5028349;28;20726;-84
2022/10/02 05:53:46;;;;;;;11.98;5.20;;;;;;;10.34;86.08;98701.88;5026670;28;22117;-85
2022/10/02 05:56:28;;;;;;;11.88;5.35;;;;;;;10.33;85.56;98677.06;5023635;28;20040;-84
2022/10/02 05:59:08;;;;;;;14.90;6.10;;;;;;;10.17;85.95;98658.50;5006209;28;20044;-84
2022/10/02 06:01:41;;;;;;;12.63;4.85;;;;;;;10.34;86.68;98708.03;5028905;28;20424;-84
2022/10/02 06:04:21;;;;;;;12.85;6.00;;;;;;;10.18;87.43;98684.09;5010518;28;20440;-84
2022/10/02 06:06:55;;;;;;;10.25;5.43;;;;;;;10.42;86.54;98710.25;5046862;28;20488;-84
2022/10/02 06:09:30;;;;;;;15.20;5.13;;;;;;;10.33;87.21;98695.75;5026436;28;20473;-84
2022/10/02 06:12:03;;;;;;;15.05;5.30;;;;;;;10.28;87.83;98698.38;5029252;28;20039;-84
2022/10/02 06:14:38;;;;;;;15.30;5.07;;;;;;;10.47;87.37;98717.50;5014762;28;20029;-84
2022/10/02 06:17:10;;;;;;;9.63;5.18;;;;;;;10.43;87.83;98714.53;5045197;28;20028;-84
2022/10/02 06:20:04;;;;;;;9.75;4.60;;;;;;;10.35;88.79;98712.28;5032391;28;20033;-84
2022/10/02 06:22:45;;;;;;;14.10;5.47;;;;;;;10.51;88.06;98723.94;5024495;28;20530;-84
2022/10/02 06:25:18;;;;;;;12.57;5.20;;;;;;;10.44;87.74;98712.69;5043131;28;20123;-84
2022/10/02 06:28:21;;;;;;;11.90;4.78;;;;;;;10.54;87.86;98726.13;5044570;28;20032;-84
2022/10/02 06:30:50;;;;;;;15.85;5.45;;;;;;;10.39;87.75;98713.44;5009164;28;20051;-85
2022/10/02 06:33:21;;;;;;;14.55;5.55;;;;;;;10.50;87.96;98725.03;5043140;28;20021;-84
2022/10/02 06:36:02;;;;;;;10.05;4.57;;;;;;;10.75;87.30;98732.47;5045450;28;20063;-84
2022/10/02 06:38:41;;;;;;;14.50;5.97;;;;;;;10.60;87.43;98714.44;5025635;28;20059;-84
2022/10/02 06:41:23;;;;;;;10.75;4.85;;;;;;;10.63;87.80;98711.28;5038091;28;20541;-84
2022/10/02 06:44:15;;;;;;;14.60;6.00;;;;;;;10.44;89.36;98710.81;5045167;28;20059;-85
2022/10/02 06:46:48;;;;;;;15.48;5.10;;;;;;;10.40;90.65;98712.38;5041223;28;20536;-85
2022/10/02 06:49:32;;;;;;;11.48;5.15;;;;;;;10.75;88.01;98721.78;5033147;28;20024;-85
2022/10/02 06:52:06;;;;;;;16.00;5.28;;;;;;;10.74;87.64;98706.84;5049611;28;20054;-85
2022/10/02 06:54:37;;;;;;;14.68;6.03;;;;;;;10.98;86.89;98719.63;5030156;28;20025;-85
2022/10/02 06:57:21;;;;;;;12.27;4.70;;;;;;;11.06;86.61;98719.16;5037520;28;20149;-85
2022/10/02 07:00:00;;;;;;;12.57;5.00;;;;;;;10.87;87.35;98711.78;5048677;28;20025;-84
2022/10/02 07:02:45;;;;;;;14.10;5.20;;;;;;;10.93;87.22;98718.75;5050458;28;20032;-85
2022/10/02 07:05:25;;;;;;;11.23;5.07;;;;;;;10.81;88.68;98724.25;5046954;28;20115;-85
2022/10/02 07:08:15;;;;;;;12.95;4.65;;;;;;;10.48;89.19;98703.91;5032223;28;20029;-86
2022/10/02 07:11:02;;;;;;;11.85;4.25;;;;;;;10.86;87.64;98734.19;5028102;28;20078;-86
2022/10/02 07:13:43;;;;;;;21.85;5.35;;;;;;;10.84;87.23;98712.25;5028301;28;20090;-85
2022/10/02 07:16:16;;;;;;;10.93;4.93;;;;;;;10.77;89.03;98725.81;5021326;28;20060;-85
2022/10/02 07:19:00;;;;;;;13.13;5.03;;;;;;;10.68;90.66;98740.66;5040624;28;20183;-84
2022/10/02 07:21:35;;;;;;;16.75;5.03;;;;;;;10.85;88.53;98736.06;5024247;28;20087;-84
2022/10/02 07:24:38;;;;;;;14.45;5.20;;;;;;;10.70;91.19;98748.44;5041079;28;20516;-84
2022/10/02 07:27:19;;;;;;;13.10;5.00;;;;;;;10.65;91.88;98740.38;5024626;28;20059;-85
2022/10/02 07:30:09;;;;;;;13.00;5.68;;;;;;;10.73;92.63;98753.25;5011729;28;20025;-83
2022/10/02 07:32:47;;;;;;;14.63;6.35;;;;;;;10.40;93.00;98720.38;5025151;28;21335;-85
2022/10/02 07:35:31;;;;;;;16.85;5.82;;;;;;;10.70;91.79;98743.91;5023704;28;20478;-84
2022/10/02 07:38:05;;;;;;;13.10;4.90;;;;;;;10.91;90.04;98750.25;5022705;28;20037;-84
2022/10/02 07:40:49;;;;;;;14.68;4.70;;;;;;;10.85;90.01;98751.28;5029007;28;20060;-85
2022/10/02 07:43:27;;;;;;;17.38;6.00;;;;;;;10.92;89.69;98754.56;5030118;28;20033;-85
2022/10/02 07:46:01;;;;;;;13.90;4.57;;;;;;;11.03;88.56;98767.72;5032404;28;20017;-85
2022/10/02 07:49:01;;;;;;;11.13;4.38;;;;;;;11.01;88.46;98745.81;5033564;28;20411;-85
2022/10/02 07:51:48;;;;;;;10.75;4.72;;;;;;;11.17;89.07;98770.78;5046978;28;20024;-85
2022/10/02 07:54:30;;;;;;;13.93;5.60;;;;;;;11.00;89.41;98756.75;5045079;28;20025;-84
2022/10/02 07:57:02;;;;;;;19.20;5.95;;;;;;;11.14;89.81;98772.09;5046335;28;20025;-84
2022/10/02 07:59:30;;;;;;;13.65;4.63;;;;;;;11.21;89.01;98772.69;5024554;28;20060;-84
2022/10/02 08:01:57;;;;;;;10.73;4.57;;;;;;;11.39;88.37;98763.50;5030683;28;20086;-85
2022/10/02 08:04:29;;;;;;;14.25;4.72;;;;;;;11.27;88.67;98760.19;5038626;28;20128;-84
2022/10/02 08:07:00;;;;;;;16.15;4.90;;;;;;;11.39;88.25;98776.88;5039032;28;20051;-85
2022/10/02 08:09:50;;;;;;;13.73;5.20;;;;;;;11.15;90.79;98752.34;5010548;28;20033;-84
2022/10/02 08:12:27;;;;;;;11.20;5.30;;;;;;;11.16;89.41;98748.59;5051952;28;20103;-84
2022/10/02 08:14:54;;;;;;;10.40;4.38;;;;;;;11.14;90.59;98737.38;5031065;28;20021;-84
2022/10/02 08:17:20;;;;;;;13.77;4.50;;;;;;;11.47;89.59;98771.03;5032356;28;20384;-84
2022/10/02 08:19:49;;;;;;;14.13;4.30;;;;;;;11.42;89.09;98759.50;5032947;28;20033;-82
2022/10/02 08:22:29;;;;;;;15.10;4.80;;;;;;;11.41;89.83;98769.41;5020862;28;20024;-82
2022/10/02 08:24:58;;;;;;;9.23;4.68;;;;;;;11.51;89.74;98774.03;5021892;28;20492;-82
2022/10/02 08:27:34;;;;;;;14.15;4.90;;;;;;;11.42;90.80;98764.88;5041965;28;20021;-83
2022/10/02 08:30:05;;;;;;;11.95;6.05;;;;;;;11.48;89.99;98780.69;5021511;28;20384;-82
2022/10/02 08:32:35;;;;;;;12.63;4.07;;;;;;;11.54;89.54;98787.66;5023325;28;20584;-82
2022/10/02 08:35:07;;;;;;;15.20;5.75;;;;;;;11.57;89.68;98783.69;5007402;28;20037;-82
2022/10/02 08:38:23;;;;;;;10.13;4.35;;;;;;;11.60;89.96;98792.00;5023817;28;20037;-82
2022/10/02 08:41:03;;;;;;;7.95;3.78;;;;;;;11.66;91.17;98790.16;4992144;28;20063;-83
2022/10/02 08:44:25;;;;;;;11.43;4.85;;;;;;;11.67;90.54;98787.25;5041752;28;20035;-82
2022/10/02 08:46:57;;;;;;;8.55;4.32;;;;;;;11.74;90.67;98793.19;4942975;28;20035;-83
2022/10/02 08:49:46;;;;;;;10.73;4.75;;;;;;;11.76;91.69;98782.25;4945908;28;20151;-83
2022/10/02 08:52:14;;;;;;;10.52;5.13;;;;;;;11.76;91.36;98788.41;5010548;28;20064;-82
2022/10/02 08:55:09;;;;;;;13.98;6.22;;;;;;;11.79;91.35;98787.91;5029017;28;20052;-82
2022/10/02 08:58:05;;;;;;;8.02;4.80;;;;;;;11.81;90.66;98787.63;5042260;28;20037;-83
2022/10/02 09:00:55;;;;;;;25.00;5.38;;;;;;;11.79;89.98;98771.84;5043591;28;20029;-82
2022/10/02 09:03:58;;;;;;;10.63;4.95;;;;;;;11.81;90.44;98780.44;5049764;28;20021;-82
2022/10/02 09:06:45;;;;;;;16.08;4.75;;;;;;;11.83;90.73;98785.50;5048036;28;20131;-83
2022/10/02 09:09:34;;;;;;;19.63;5.63;;;;;;;11.78;91.09;98775.56;5046046;28;20044;-82
2022/10/02 09:12:07;;;;;;;14.98;5.63;;;;;;;11.72;91.61;98781.16;5029705;28;20025;-82
2022/10/02 09:14:51;;;;;;;12.45;5.80;;;;;;;11.58;91.67;98764.72;5048717;28;20036;-82
2022/10/02 09:17:43;;;;;;;10.90;4.65;;;;;;;11.77;91.44;98790.00;5010235;28;20444;-84
2022/10/02 09:20:42;;;;;;;15.50;5.65;;;;;;;11.71;90.74;98758.13;5047440;28;20508;-83
2022/10/02 09:23:45;;;;;;;11.57;5.00;;;;;;;11.71;91.86;98785.69;5031188;28;20025;-83
2022/10/02 09:26:18;;;;;;;15.68;5.80;;;;;;;11.78;92.01;98780.94;5033284;28;20039;-82
2022/10/02 09:29:19;;;;;;;17.08;5.95;;;;;;;11.87;91.53;98790.09;5051478;28;20032;-83
2022/10/02 09:32:23;;;;;;;8.57;5.32;;;;;;;11.93;91.16;98778.34;5030689;28;20017;-82
2022/10/02 09:35:01;;;;;;;12.50;5.22;;;;;;;11.87;93.03;98784.72;5001997;28;20029;-83
2022/10/02 09:37:49;;;;;;;16.17;4.88;;;;;;;12.01;91.95;98785.09;5032731;28;20040;-82
2022/10/02 09:40:53;;;;;;;11.57;6.30;;;;;;;11.98;91.80;98780.25;5036999;28;20060;-82
2022/10/02 09:43:37;;;;;;;12.00;4.78;;;;;;;11.99;91.77;98779.97;5049579;28;20075;-82
2022/10/02 09:46:33;;;;;;;10.45;4.85;;;;;;;12.10;91.56;98782.72;5057879;28;20481;-82
2022/10/02 09:49:18;;;;;;;14.95;5.85;;;;;;;12.20;94.25;98791.59;5026579;28;20024;-81
2022/10/02 09:51:56;;;;;;;10.85;5.70;;;;;;;12.30;93.21;98805.03;5026241;28;20036;-82
2022/10/02 09:54:35;;;;;;;11.68;4.72;;;;;;;12.32;91.61;98778.03;5029817;28;20492;-82
2022/10/02 09:57:29;;;;;;;16.92;7.43;;;;;;;12.48;94.20;98766.28;5048555;28;20029;-82
2022/10/02 10:00:21;;;;;;;10.45;5.57;;;;;;;12.60;92.01;98793.66;5029157;28;20164;-82
2022/10/02 10:03:17;;;;;;;15.88;5.72;;;;;;;12.65;90.60;98793.66;5040762;28;20516;-82
2022/10/02 10:06:02;;;;;;;15.05;5.18;;;;;;;12.67;90.62;98786.16;5029205;28;20029;-82
2022/10/02 10:08:49;;;;;;;16.85;5.38;;;;;;;12.62;90.36;98791.53;5052943;28;20028;-82
2022/10/02 10:11:23;;;;;;;11.63;5.43;;;;;;;12.44;90.86;98754.50;5043970;28;20392;-82
2022/10/02 10:14:05;;;;;;;16.17;7.32;;;;;;;12.73;92.00;98791.28;5047186;28;20033;-82
2022/10/02 10:17:04;;;;;;;11.82;6.22;;;;;;;12.79;91.12;98789.44;5043435;28;20025;-83
2022/10/02 10:19:44;;;;;;;14.35;6.30;;;;;;;12.85;91.87;98792.91;5039719;28;20138;-83
2022/10/02 10:22:09;;;;;;;18.52;7.72;;;;;;;12.89;91.16;98783.31;5026794;28;20033;-83
2022/10/02 10:24:59;;;;;;;14.10;6.80;;;;;;;12.70;90.78;98777.63;5028715;28;20048;-82
2022/10/02 10:28:01;;;;;;;19.85;7.30;;;;;;;12.80;91.41;98778.44;5042035;28;20029;-82
2022/10/02 10:31:01;;;;;;;18.10;7.40;;;;;;;12.75;91.74;98791.81;5028892;28;20029;-81
2022/10/02 10:33:49;;;;;;;19.77;8.00;;;;;;;12.81;90.79;98789.97;5049249;28;20511;-82
2022/10/02 10:39:58;;;;;;;13.20;7.38;;;;;;;12.57;92.17;98764.72;5042383;28;20047;-81
2022/10/02 10:42:48;;;;;;;15.18;8.43;;;;;;;12.98;91.68;98787.84;5027096;28;20044;-82
2022/10/02 10:45:33;;;;;;;20.23;7.68;;;;;;;12.97;91.12;98780.91;5039746;28;20162;-82
2022/10/02 10:48:04;;;;;;;11.15;6.63;;;;;;;13.06;90.50;98784.69;5022832;28;20059;-82
2022/10/02 10:50:44;;;;;;;13.02;6.78;;;;;;;13.10;90.03;98783.09;5026199;28;20509;-82
2022/10/02 10:53:44;;;;;;;13.10;6.22;;;;;;;13.20;90.09;98799.19;5047499;28;20021;-81
2022/10/02 10:56:28;;;;;;;13.68;7.40;;;;;;;13.13;89.79;98787.91;5042187;28;20044;-81
2022/10/02 10:59:21;;;;;;;13.93;6.03;;;;;;;13.12;89.30;98799.72;5030743;28;20025;-81
2022/10/02 11:02:18;;;;;;;13.10;5.85;;;;;;;13.10;89.90;98804.53;5024424;28;20133;-82
2022/10/02 11:04:58;;;;;;;11.13;6.28;;;;;;;13.13;89.25;98803.19;5041894;28;20419;-81
2022/10/02 11:07:23;;;;;;;14.38;6.30;;;;;;;13.06;89.21;98806.13;5047449;28;20039;-82
2022/10/02 11:10:01;;;;;;;12.98;6.90;;;;;;;13.14;88.61;98807.47;5026415;28;20025;-82
2022/10/02 11:12:40;;;;;;;17.73;7.10;;;;;;;13.00;88.23;98790.25;5042686;28;20033;-82
2022/10/02 11:15:27;;;;;;;17.05;7.38;;;;;;;13.16;88.45;98819.56;5045976;28;20498;-82
2022/10/02 11:18:08;;;;;;;;;;;;;;;13.18;88.53;98812.03;5043279;28;20029;-82
2022/10/02 11:20:42;;;;;;;18.63;7.63;;;;;;;13.21;88.48;98810.72;5042343;28;19975;-82
2022/10/02 11:23:26;;;;;;;16.30;7.03;;;;;;;13.31;88.31;98810.72;5025648;28;20112;-82
2022/10/02 11:26:10;;;;;;;13.75;7.38;;;;;;;13.19;88.87;98804.81;5028423;28;20025;-82
2022/10/02 11:28:58;;;;;;;11.15;6.72;;;;;;;13.37;87.90;98820.38;5016999;28;20545;-82
2022/10/02 11:31:23;;;;;;;12.38;7.43;;;;;;;13.38;87.94;98812.09;5027062;28;20431;-82
2022/10/02 11:33:56;;;;;;;18.23;6.80;;;;;;;13.36;87.45;98819.59;5040846;28;20029;-82
2022/10/02 11:36:51;;;;;;;10.65;7.05;;;;;;;13.10;88.81;98796.50;5022855;28;20022;-82
2022/10/02 11:39:41;;;;;;;8.90;6.85;;;;;;;13.24;88.00;98816.34;5044787;28;20029;-81
2022/10/02 11:42:20;;;;;;;16.58;7.72;;;;;;;13.03;88.24;98789.75;5026607;28;20045;-81
2022/10/02 11:45:10;;;;;;;16.50;7.43;;;;;;;13.35;89.07;98825.19;5025562;28;20033;-81
2022/10/02 11:47:54;;;;;;;17.75;8.25;;;;;;;13.48;88.48;98816.63;5043165;28;20252;-80
2022/10/02 11:50:56;;;;;;;16.10;8.05;;;;;;;13.61;87.99;98815.31;5051349;28;20055;-80
2022/10/02 11:53:33;;;;;;;17.05;7.32;;;;;;;13.69;87.07;98806.72;5029730;28;20519;-81
2022/10/02 11:56:16;;;;;;;21.02;8.13;;;;;;;13.80;87.14;98821.72;5031351;28;20029;-80
2022/10/02 11:58:57;;;;;;;19.08;7.82;;;;;;;13.76;87.21;98823.34;5030301;28;20060;-80
2022/10/02 12:01:44;;;;;;;17.42;8.15;;;;;;;13.94;87.00;98820.91;5033498;28;20033;-79
2022/10/02 12:04:27;;;;;;;19.08;8.20;;;;;;;14.11;85.92;98824.09;5049167;28;20029;-79
2022/10/02 12:07:23;;;;;;;17.30;7.72;;;;;;;14.00;85.89;98808.28;5023429;28;20123;-80
2022/10/02 12:10:26;;;;;;;12.63;7.70;;;;;;;14.01;85.52;98818.75;5046283;28;20384;-80
2022/10/02 12:12:54;;;;;;;11.93;7.75;;;;;;;14.10;84.91;98810.94;5030352;28;20078;-80
2022/10/02 12:15:33;;;;;;;13.50;7.97;;;;;;;14.02;84.78;98792.72;5026495;28;20037;-80
2022/10/02 12:18:04;;;;;;;14.93;6.82;;;;;;;14.21;84.48;98809.84;5022829;28;20071;-80
2022/10/02 12:29:24;;;;;;;11.52;6.63;;;;;;;14.39;83.28;98809.31;5050097;28;20163;-80
2022/10/02 12:32:35;;;;;;;14.55;7.00;;;;;;;14.47;83.37;98806.03;5044680;28;20028;-80
2022/10/02 12:35:10;;;;;;;15.23;6.57;;;;;;;14.38;82.36;98798.81;5034757;28;20033;-80
2022/10/02 12:37:44;;;;;;;19.85;7.60;;;;;;;14.40;81.73;98802.84;5045051;28;20037;-80
2022/10/02 12:40:22;;;;;;;16.52;7.20;;;;;;;14.63;80.90;98815.66;5029821;28;20114;-80